Latest Coastal Weather Observations for Portland Airport

IDS60701

Issued at 12:31 pm CST Tuesday 28 June 2022 (issued every 10 minutes, with the page automatically refreshed every 10 minutes)

About coastal observations | Map of coastal stations | Coastal observations for SA | Marine services | Other Formats
Station Details ID: 090171 Name: CASHMORE AIRPORT Lat: -38.31 Lon: 141.47 Height: 80.9 m
Data from the previous 72 hours. | See also: Recent months at Portland Airport
Date/Time
CST
Wind Sea
Height
m
Swell Vis
km
Cloud Weather Temp
°C
Press
MSL
hPa
Rain since
9am
mm
Dir  Spd
kts
Gust
kts
Height
m
Period
s
Dir
28/12:30pm NNW 9 13 - - - - 10 Clear - 12.9 1027.4 0.0
28/12:00pm N 11 17 - - - - 10 - - 12.6 1027.7 0.0
28/11:30am NNW 12 17 - - - - 10 - - 12.0 1028.3 0.0
28/11:00am NNW 9 13 - - - - 10 - - 11.8 1028.9 0.0
28/10:30am NNW 9 13 - - - - 10 - - 11.4 1029.1 0.0
28/10:00am NNW 8 13 - - - - 10 - - 10.3 1029.2 0.0
28/09:30am NNW 9 16 - - - - 10 - - 9.1 1029.1 0.0
28/09:00am N 9 13 - - - - 10 - - 7.6 1028.7 0.0
28/08:30am N 8 12 - - - - 10 Cloudy - 7.1 1028.9 0.0
28/08:00am NNE 4 6 - - - - 10 - - 4.6 1029.7 0.0
28/07:30am N 4 5 - - - - 10 - - 4.7 1029.7 0.0
28/07:00am NNE 1 4 - - - - 10 - - 4.9 1029.7 0.0
28/06:30am N 5 8 - - - - 10 - - 5.2 1029.4 0.0
28/06:00am N 9 12 - - - - 10 - - 5.6 1029.1 0.0
28/05:30am N 6 8 - - - - 10 Cloudy - 5.2 1029.3 0.0
28/05:00am N 7 9 - - - - 10 - - 5.3 1029.8 0.0
28/04:30am NNW 7 8 - - - - 10 - - 5.2 1029.9 0.0
28/04:00am NNW 6 9 - - - - 10 - - 5.5 1029.9 0.0
28/03:30am N 5 7 - - - - 10 - - 5.2 1030.1 0.0
28/03:00am NNW 7 9 - - - - 10 - - 5.2 1030.6 0.0
28/02:30am NNW 7 9 - - - - 10 Mostly cloudy - 5.2 1031.0 0.0
28/02:00am N 7 9 - - - - 10 - - 5.5 1031.0 0.0
28/01:30am NNW 7 8 - - - - 10 - - 5.6 1031.0 0.0
28/01:00am NNW 6 9 - - - - 10 - - 5.7 1031.2 0.0
28/12:30am NNW 7 9 - - - - 10 Partly cloudy - 6.1 1031.5 0.0
28/12:00am NNW 6 8 - - - - 10 Partly cloudy - 6.6 1031.7 0.0
 
Date/Time
CST
Wind Sea
Height
m
Swell Vis
km
Cloud Weather Temp
°C
Press
MSL
hPa
Rain since
9am
mm
Dir  Spd
kts
Gust
kts
Height
m
Period
s
Dir
27/11:30pm NNW 7 8 - - - - 10 - - 6.4 1031.9 0.0
27/11:00pm NNW 6 8 - - - - 10 - - 6.1 1032.0 0.0
27/10:30pm N 5 6 - - - - 10 Partly cloudy - 6.5 1032.0 0.0
27/10:00pm N 7 9 - - - - 10 Partly cloudy - 7.8 1032.1 0.0
27/09:30pm NNW 6 8 - - - - 10 Cloudy - 8.4 1032.3 0.0
27/09:00pm N 6 8 - - - - 10 Cloudy - 8.7 1032.5 0.0
27/08:30pm NNW 6 8 - - - - 10 Cloudy - 8.7 1032.6 0.0
27/08:00pm NNW 6 8 - - - - 10 Cloudy - 8.6 1032.6 0.0
27/07:30pm NNW 5 7 - - - - 10 Cloudy - 8.7 1032.8 0.0
27/07:00pm NNW 6 7 - - - - 10 Cloudy - 8.4 1032.8 0.0
27/06:30pm NNW 5 6 - - - - 10 Cloudy - 8.3 1032.7 0.0
27/06:00pm NNW 5 6 - - - - 10 Partly cloudy - 8.4 1032.5 0.0
27/05:30pm NNW 5 6 - - - - 10 Cloudy - 9.2 1032.5 0.0
27/05:00pm NNW 4 6 - - - - 10 Partly cloudy - 10.1 1032.6 0.0
27/04:30pm NW 5 8 - - - - 10 Cloudy - 11.0 1032.4 0.0
27/04:00pm WNW 7 10 - - - - 10 Cloudy - 11.4 1032.4 0.0
27/03:30pm WNW 8 11 - - - - 10 Cloudy - 12.0 1032.5 0.0
27/03:00pm WNW 9 13 - - - - 10 Partly cloudy - 12.3 1032.8 0.0
27/02:30pm W 9 12 - - - - 10 Cloudy - 12.2 1032.9 0.0
27/02:00pm WNW 7 10 - - - - 10 Cloudy - 12.0 1033.0 0.0
27/01:30pm WNW 7 10 - - - - 10 Cloudy - 12.6 1033.3 0.0
27/01:00pm W 9 11 - - - - 10 Partly cloudy - 12.0 1033.7 0.0
27/12:30pm WSW 10 13 - - - - 10 Cloudy - 12.2 1033.8 0.0
27/12:00pm SW 8 11 - - - - 10 Cloudy - 12.3 1034.3 0.0
27/11:30am WSW 8 11 - - - - 10 Cloudy - 12.7 1034.5 0.0
27/11:00am SW 8 11 - - - - 10 Cloudy - 12.1 1034.6 0.0
27/10:30am SW 6 9 - - - - 10 Cloudy - 12.0 1034.9 0.0
27/10:00am SW 6 10 - - - - 10 Cloudy - 11.9 1034.8 0.0
27/09:30am SW 5 9 - - - - 10 Cloudy - 11.5 1034.5 0.0
27/09:00am W 3 6 - - - - 10 Cloudy - 10.1 1034.3 0.0
27/08:30am CALM 0 4 - - - - 10 Mostly cloudy - 8.2 1033.7 0.2
27/08:00am W 3 4 - - - - 10 Partly cloudy - 7.0 1033.3 0.2
27/07:30am WSW 3 3 - - - - 10 Cloudy - 6.5 1033.2 0.2
27/07:00am WSW 2 3 - - - - 10 Cloudy - 5.8 1032.8 0.2
27/06:30am WSW 3 4 - - - - 10 Partly cloudy - 6.2 1032.3 0.2
27/06:00am WSW 4 5 - - - - 10 Partly cloudy - 6.4 1032.3 0.2
27/05:30am WSW 5 6 - - - - 10 Partly cloudy - 6.5 1032.4 0.2
27/05:00am WSW 6 8 - - - - 10 Partly cloudy - 7.6 1032.1 0.2
27/04:30am SW 7 10 - - - - 10 Partly cloudy - 8.6 1031.8 0.2
27/04:00am WSW 5 6 - - - - 10 Partly cloudy - 7.6 1031.9 0.2
27/03:30am SW 7 10 - - - - 10 Partly cloudy - 8.0 1031.7 0.2
27/03:00am WSW 4 5 - - - - 10 Cloudy - 8.7 1031.7 0.2
27/02:30am WSW 6 11 - - - - 10 Cloudy - 9.3 1031.8 0.2
27/02:00am SW 8 13 - - - - 10 Partly cloudy - 10.1 1032.1 0.2
27/01:30am SW 8 13 - - - - 10 Cloudy - 9.9 1031.9 0.2
27/01:00am SSW 7 10 - - - - 10 Cloudy - 10.3 1031.5 0.2
27/12:30am SW 6 8 - - - - 10 Cloudy - 9.6 1031.4 0.2
27/12:00am SW 8 11 - - - - 10 Partly cloudy - 9.5 1031.5 0.2
 
Date/Time
CST
Wind Sea
Height
m
Swell Vis
km
Cloud Weather Temp
°C
Press
MSL
hPa
Rain since
9am
mm
Dir  Spd
kts
Gust
kts
Height
m
Period
s
Dir
26/11:30pm SW 6 7 - - - - 10 Mostly cloudy - 8.9 1031.4 0.2
26/11:00pm SW 6 10 - - - - 10 Partly cloudy - 8.6 1031.4 0.2
26/10:30pm SW 6 8 - - - - 10 Partly cloudy - 7.4 1031.2 0.2
26/10:00pm SW 7 10 - - - - 10 - - 7.4 1031.0 0.2
26/09:30pm SW 7 10 - - - - 10 - - 8.7 1030.8 0.2
26/09:00pm SW 9 13 - - - - 10 Partly cloudy - 9.3 1030.5 0.2
26/08:30pm SSW 8 13 - - - - 10 Mostly cloudy - 9.8 1030.1 0.2
26/08:00pm SSW 7 11 - - - - 10 Partly cloudy - 10.0 1029.9 0.2
26/07:30pm WSW 7 9 - - - - 10 Partly cloudy - 8.8 1029.4 0.2
26/07:00pm SSW 6 9 - - - - 10 Partly cloudy - 9.4 1028.8 0.2
26/06:30pm SSW 9 15 - - - - 10 Partly cloudy - 9.5 1028.6 0.2
26/06:00pm SW 8 11 - - - - 10 Partly cloudy - 9.2 1028.3 0.2
26/05:30pm SW 9 13 - - - - 10 Mostly clear - 9.1 1028.0 0.2
26/05:00pm SSW 9 13 - - - - 10 Partly cloudy - 9.6 1027.6 0.2
26/04:30pm SW 11 15 - - - - 10 Partly cloudy - 9.7 1027.2 0.2
26/04:00pm SW 11 15 - - - - 10 Partly cloudy - 10.1 1026.8 0.2
26/03:30pm SW 10 17 - - - - 10 Partly cloudy - 10.6 1026.7 0.2
26/03:00pm SW 11 17 - - - - 10 Partly cloudy - 11.2 1026.4 0.2
26/02:30pm SSW 10 15 - - - - 10 Cloudy - 10.6 1026.1 0.2
26/02:00pm SW 13 17 - - - - 10 Partly cloudy - 12.1 1025.7 0.2
26/01:30pm SSW 8 15 - - - - 10 Partly cloudy - 11.6 1025.5 0.2
26/01:00pm SW 10 15 - - - - 10 Partly cloudy - 11.6 1025.3 0.2
26/12:30pm SW 11 17 - - - - 10 Partly cloudy - 11.3 1025.2 0.2
26/12:00pm SW 8 12 - - - - 10 Partly cloudy - 11.0 1025.3 0.2
26/11:30am SW 9 16 - - - - 10 Cloudy - 11.6 1025.2 0.2
26/11:00am SSW 5 8 - - - - 10 Partly cloudy - 11.2 1025.3 0.2
26/10:30am SW 6 9 - - - - 10 Partly cloudy - 10.1 1025.2 0.2
26/10:00am SSW 7 13 - - - - 10 Partly cloudy - 11.3 1025.1 0.0
26/09:30am SW 7 11 - - - - 10 Partly cloudy - 11.0 1024.5 0.0
26/09:00am SW 8 14 - - - - 10 Partly cloudy - 10.7 1024.3 0.0
26/08:30am SW 8 12 - - - - 10 Cloudy - 10.1 1024.1 9.8
26/08:00am WSW 9 12 - - - - 10 Partly cloudy - 10.4 1023.7 9.8
26/07:30am WSW 10 15 - - - - 10 Partly cloudy - 10.5 1023.3 9.8
26/07:00am WSW 8 13 - - - - 10 Partly cloudy - 10.3 1022.8 9.8
26/06:30am WSW 12 16 - - - - 10 Cloudy - 10.2 1022.3 9.8
26/06:00am WSW 11 16 - - - - 10 Partly cloudy - 10.5 1021.7 9.8
26/05:30am SW 8 12 - - - - 10 Cloudy - 10.3 1021.4 9.8
26/05:00am SW 7 13 - - - - 10 Partly cloudy - 10.5 1021.0 9.8
26/04:30am SW 8 12 - - - - 10 Cloudy - 10.4 1020.7 9.8
26/04:00am SW 7 10 - - - - 10 Partly cloudy - 10.3 1020.6 9.8
26/03:34am W 6 8 - - - - 10 Partly cloudy - 10.4 1020.3 9.8
26/03:30am W 6 7 - - - - 9 Partly cloudy - 10.5 1020.3 9.8
26/03:26am WSW 6 7 - - - - 6 Partly cloudy - 10.5 1020.3 9.8
26/03:12am SW 6 9 - - - - 4 Partly cloudy - 10.3 1020.3 9.4
26/03:08am WSW 7 10 - - - - 5 Partly cloudy - 10.3 1020.3 9.4
26/03:06am WSW 7 10 - - - - 6 Partly cloudy - 10.4 1020.3 9.2
26/03:00am WSW 8 12 - - - - 10 Partly cloudy - 10.4 1020.2 8.8
26/02:45am W 7 17 - - - - 5 Partly cloudy - 10.6 1020.1 8.0
26/02:30am W 7 9 - - - - 10 Cloudy Recent precip. 10.5 1020.0 7.8
26/02:10am WSW 9 13 - - - - 10 Partly cloudy - 10.4 1020.0 7.8
26/02:08am WSW 9 12 - - - - 10 Partly cloudy - 10.4 1020.0 7.8
26/02:00am WSW 10 15 - - - - 8 Partly cloudy - 10.5 1020.0 7.8
26/01:40am WSW 15 21 - - - - 5 Partly cloudy - 10.7 1019.7 7.4
26/01:37am WSW 15 21 - - - - 7 Partly cloudy - 10.9 1019.7 7.4
26/01:33am WSW 15 21 - - - - 8 Partly cloudy - 10.9 1019.6 7.4
26/01:30am WSW 14 21 - - - - 8 Partly cloudy - 10.8 1019.7 7.4
26/01:21am WSW 14 19 - - - - 9 Partly cloudy - 10.5 1019.6 7.4
26/01:03am W 13 17 - - - - 5 Partly cloudy - 11.1 1019.5 7.2
26/01:00am W 13 18 - - - - 3 Partly cloudy - 11.1 1019.5 7.2
26/12:42am WNW 12 19 - - - - 5 Partly cloudy - 11.0 1019.0 4.0
26/12:30am NW 13 19 - - - - 10 Partly cloudy - 11.0 1019.0 3.6
26/12:00am NNW 8 11 - - - - 10 Partly cloudy - 10.7 1019.3 3.4
 
Date/Time
CST
Wind Sea
Height
m
Swell Vis
km
Cloud Weather Temp
°C
Press
MSL
hPa
Rain since
9am
mm
Dir  Spd
kts
Gust
kts
Height
m
Period
s
Dir
25/11:30pm NW 10 14 - - - - 10 Cloudy - 11.1 1019.3 3.4
25/11:00pm WNW 13 17 - - - - 10 Partly cloudy - 11.4 1019.1 3.4
25/10:30pm NW 12 17 - - - - 9 Partly cloudy - 11.3 1018.9 3.4
25/10:05pm WNW 14 19 - - - - 10 Partly cloudy - 11.3 1018.9 3.4
25/10:00pm NW 14 19 - - - - 8 Partly cloudy - 11.2 1018.9 3.4
25/09:47pm WNW 13 17 - - - - 5 Partly cloudy - 11.2 1019.0 3.2
25/09:37pm WNW 15 19 - - - - 10 Partly cloudy - 11.2 1018.8 2.6
25/09:30pm WNW 17 22 - - - - 8 Partly cloudy - 11.2 1018.7 2.6
25/09:25pm NW 18 25 - - - - 5 Partly cloudy - 11.3 1018.7 2.6
25/09:19pm WNW 15 25 - - - - 8 Partly cloudy - 11.4 1018.8 2.6
25/09:00pm WNW 14 19 - - - - 10 Partly cloudy - 11.3 1018.7 2.2
25/08:30pm WNW 13 17 - - - - 9 Cloudy Rain 11.6 1018.5 2.0
25/08:13pm WNW 14 21 - - - - 10 Partly cloudy - 11.7 1018.2 1.8
25/08:00pm WNW 13 18 - - - - 5 Partly cloudy - 11.5 1018.2 1.6
25/07:52pm WNW 14 20 - - - - 5 Partly cloudy - 11.5 1018.1 1.2
25/07:30pm NW 16 21 - - - - 10 Partly cloudy - 11.3 1018.0 0.6
25/07:00pm NW 13 19 - - - - 10 Partly cloudy - 11.9 1018.0 0.6
25/06:30pm NW 14 22 - - - - 10 Partly cloudy - 12.1 1017.6 0.6
25/06:00pm NW 12 17 - - - - 9 Partly cloudy - 12.0 1017.3 0.4
25/05:30pm NW 14 20 - - - - 10 Partly cloudy - 12.0 1017.1 0.4
25/05:00pm NW 15 20 - - - - 10 - - 11.8 1016.8 0.4
25/04:30pm WNW 14 19 - - - - 10 Partly cloudy - 11.8 1016.7 0.4
25/04:02pm NW 16 22 - - - - 10 Partly cloudy - 12.1 1016.6 0.4
25/04:00pm NW 16 22 - - - - 10 Partly cloudy - 12.1 1016.6 0.4
25/03:44pm WNW 20 37 - - - - 5 Partly cloudy - 12.3 1016.7 0.4
25/03:41pm WNW 17 37 - - - - 10 Partly cloudy - 12.9 1016.5 0.2
25/03:30pm WNW 15 25 - - - - 10 Partly cloudy - 13.9 1016.5 0.2
25/03:00pm WNW 17 24 - - - - 10 Partly cloudy - 14.5 1016.4 0.2
25/02:32pm WNW 18 29 - - - - 10 Partly cloudy - 14.6 1016.3 0.2
25/02:30pm WNW 18 26 - - - - 10 Mostly clear - 14.6 1016.3 0.2
25/02:06pm WNW 18 29 - - - - 10 Partly cloudy - 14.7 1016.5 0.2
25/02:00pm WNW 19 24 - - - - 10 Partly cloudy - 14.9 1016.5 0.2
25/01:30pm WNW 16 22 - - - - 10 Partly cloudy - 13.8 1016.9 0.2
25/01:00pm WNW 17 24 - - - - 10 Partly cloudy - 13.8 1017.0 0.2
25/12:30pm WNW 15 20 - - - - 10 Partly cloudy - 13.2 1017.4 0.2
25/12:26pm WNW 15 21 - - - - 10 Partly cloudy - 12.9 1017.5 0.2
25/12:09pm WNW 15 21 - - - - 5 Partly cloudy - 12.5 1017.6 0.0

Other formats

Comma delimited format used in spreadsheet applications
http://www.bom.gov.au/fwo/IDS60701/IDS60701.94828.axf

JavaScript Object Notation format (JSON) in row-major order
http://www.bom.gov.au/fwo/IDS60701/IDS60701.94828.json

Data quality

Most of these data are generated automatically and are frequently updated. Quality checks on data are not normally performed. It is possible for incorrect values to appear. Refer to information at About Latest Weather Observations and please check the disclaimer before using these data.